createdAt,value
2023-07-02T00:00:23.654Z,5.20
2023-07-02T00:02:51.319Z,5.18
2023-07-02T00:05:19.496Z,5.30
2023-07-02T00:07:47.104Z,5.07
2023-07-02T00:10:14.845Z,5.45
2023-07-02T00:12:42.542Z,5.43
2023-07-02T00:15:10.348Z,5.40
2023-07-02T00:17:41.223Z,5.80
2023-07-02T00:20:15.713Z,5.18
2023-07-02T00:22:46.952Z,5.63
2023-07-02T00:25:15.144Z,5.25
2023-07-02T00:27:43.657Z,5.20
2023-07-02T00:30:11.512Z,5.65
2023-07-02T00:32:39.357Z,5.93
2023-07-02T00:35:08.848Z,5.88
2023-07-02T00:37:36.916Z,6.00
2023-07-02T00:40:05.135Z,5.22
2023-07-02T00:42:32.862Z,5.88
2023-07-02T00:45:04.159Z,6.38
2023-07-02T00:47:36.042Z,5.18
2023-07-02T00:50:04.150Z,5.65
2023-07-02T00:52:32.074Z,6.20
2023-07-02T00:54:59.535Z,5.70
2023-07-02T00:57:31.067Z,6.15
2023-07-02T01:00:01.810Z,6.57
2023-07-02T01:02:31.804Z,5.75
2023-07-02T01:05:01.700Z,5.82
2023-07-02T01:07:30.681Z,6.13
2023-07-02T01:09:58.424Z,6.38
2023-07-02T01:12:26.047Z,6.90
2023-07-02T01:14:54.148Z,6.22
2023-07-02T01:17:25.194Z,6.95
2023-07-02T01:19:54.991Z,6.43
2023-07-02T01:22:24.650Z,6.78
2023-07-02T01:24:52.735Z,6.00
2023-07-02T01:27:20.363Z,6.35
2023-07-02T01:29:48.812Z,6.43
2023-07-02T01:32:16.284Z,6.07
2023-07-02T01:34:50.376Z,6.30
2023-07-02T01:37:19.234Z,6.43
2023-07-02T01:39:47.315Z,6.38
2023-07-02T01:42:17.292Z,6.15
2023-07-02T01:44:45.409Z,6.50
2023-07-02T01:47:13.154Z,5.55
2023-07-02T01:49:40.828Z,6.40
2023-07-02T01:52:08.367Z,6.18
2023-07-02T01:54:37.932Z,6.72
2023-07-02T01:57:06.125Z,6.35
2023-07-02T01:59:33.733Z,6.28
2023-07-02T02:02:05.908Z,6.20
2023-07-02T02:04:37.806Z,6.18
2023-07-02T02:07:06.411Z,6.35
2023-07-02T02:09:34.878Z,6.10
2023-07-02T02:12:04.883Z,5.95
2023-07-02T02:14:33.915Z,6.35
2023-07-02T02:17:01.919Z,6.53
2023-07-02T02:19:29.713Z,6.35
2023-07-02T02:21:57.364Z,6.40
2023-07-02T02:24:25.105Z,6.57
2023-07-02T02:26:52.575Z,7.00
2023-07-02T02:29:20.095Z,6.28
2023-07-02T02:31:47.600Z,6.95
2023-07-02T02:34:15.548Z,7.15
2023-07-02T02:36:43.520Z,6.85
2023-07-02T02:39:12.289Z,6.90
2023-07-02T02:41:40.065Z,7.35
2023-07-02T02:44:07.575Z,7.10
2023-07-02T02:46:35.593Z,6.97
2023-07-02T02:49:03.261Z,8.00
2023-07-02T02:51:32.756Z,7.60
2023-07-02T02:54:00.452Z,7.50
2023-07-02T02:56:28.273Z,8.13
2023-07-02T03:01:42.347Z,7.90
2023-07-02T03:04:10.122Z,7.82
2023-07-02T03:06:37.525Z,8.35
2023-07-02T03:09:06.791Z,7.97
2023-07-02T03:11:34.436Z,8.10
2023-07-02T03:14:02.276Z,8.40
2023-07-02T03:16:30.014Z,8.30
2023-07-02T03:18:57.726Z,8.10
2023-07-02T03:21:25.338Z,8.35
2023-07-02T03:23:52.872Z,8.57
2023-07-02T03:26:21.688Z,8.88
2023-07-02T03:28:49.209Z,9.07
2023-07-02T03:31:16.864Z,8.30
2023-07-02T03:33:44.703Z,8.60
2023-07-02T03:36:12.192Z,9.48
2023-07-02T03:38:40.167Z,9.30
2023-07-02T03:41:07.683Z,9.75
2023-07-02T03:43:35.441Z,9.18
2023-07-02T03:46:03.990Z,9.38
2023-07-02T03:48:31.675Z,8.98
2023-07-02T03:50:59.315Z,9.25
2023-07-02T03:53:26.859Z,9.05
2023-07-02T03:55:54.733Z,8.98
2023-07-02T03:58:22.459Z,8.80
2023-07-02T04:00:53.197Z,8.73
2023-07-02T04:03:20.897Z,8.95
2023-07-02T04:05:48.419Z,9.25
2023-07-02T04:08:16.823Z,9.07
2023-07-02T04:10:45.318Z,9.65
2023-07-02T04:13:14.313Z,9.63
2023-07-02T04:15:41.719Z,9.43
2023-07-02T04:18:09.614Z,9.52
2023-07-02T04:20:39.769Z,9.13
2023-07-02T04:23:07.914Z,9.48
2023-07-02T04:25:47.458Z,9.38
2023-07-02T04:28:24.404Z,11.25
2023-07-02T04:30:53.303Z,9.60
2023-07-02T04:33:22.158Z,9.43
2023-07-02T04:35:49.916Z,13.10
2023-07-02T04:38:18.767Z,9.73
2023-07-02T04:40:47.208Z,10.75
2023-07-02T04:43:15.452Z,11.70
2023-07-02T04:45:43.280Z,15.18
2023-07-02T04:48:11.886Z,9.55
2023-07-02T04:50:39.693Z,10.02
2023-07-02T04:53:14.363Z,9.70
2023-07-02T04:55:42.843Z,9.30
2023-07-02T04:58:11.236Z,9.77
2023-07-02T05:00:39.354Z,9.13
2023-07-02T05:03:07.125Z,10.30
2023-07-02T05:05:36.189Z,10.35
2023-07-02T05:08:06.213Z,8.93
2023-07-02T05:10:35.372Z,9.75
2023-07-02T05:13:03.255Z,10.45
2023-07-02T05:15:30.821Z,10.02
2023-07-02T05:17:58.447Z,10.02
2023-07-02T05:20:27.876Z,9.25
2023-07-02T05:22:55.518Z,9.07
2023-07-02T05:25:23.229Z,10.40
2023-07-02T05:27:51.018Z,9.95
2023-07-02T05:30:18.766Z,9.57
2023-07-02T05:32:46.378Z,10.48
2023-07-02T05:35:14.372Z,10.52
2023-07-02T05:37:42.007Z,10.07
2023-07-02T05:40:09.950Z,10.65
2023-07-02T05:42:38.936Z,10.43
2023-07-02T05:45:06.973Z,9.82
2023-07-02T05:47:34.784Z,10.55
2023-07-02T05:50:02.479Z,9.63
2023-07-02T05:52:30.337Z,9.65
2023-07-02T05:54:57.974Z,8.43
2023-07-02T05:57:26.066Z,9.68
2023-07-02T05:59:53.675Z,8.88
2023-07-02T06:02:21.491Z,9.57
2023-07-02T06:04:49.246Z,9.20
2023-07-02T06:07:17.231Z,9.45
2023-07-02T06:09:45.104Z,9.05
2023-07-02T06:12:12.838Z,9.50
2023-07-02T06:14:40.351Z,9.60
2023-07-02T06:17:09.486Z,9.90
2023-07-02T06:19:38.402Z,9.23
2023-07-02T06:22:06.065Z,9.48
2023-07-02T06:24:33.587Z,9.80
2023-07-02T06:27:01.238Z,9.65
2023-07-02T06:29:30.340Z,10.30
2023-07-02T06:31:57.936Z,9.73
2023-07-02T06:34:26.693Z,9.48
2023-07-02T06:36:54.516Z,9.48
2023-07-02T06:39:22.278Z,10.05
2023-07-02T06:41:49.805Z,8.85
2023-07-02T06:44:21.694Z,9.45
2023-07-02T06:46:49.709Z,9.38
2023-07-02T06:49:17.561Z,10.35
2023-07-02T06:51:45.296Z,9.32
2023-07-02T06:54:14.545Z,8.85
2023-07-02T06:56:45.360Z,8.60
2023-07-02T06:59:13.217Z,9.20
2023-07-02T07:01:40.862Z,7.93
2023-07-02T07:04:08.503Z,8.68
2023-07-02T07:06:36.383Z,8.38
2023-07-02T07:09:07.144Z,8.35
2023-07-02T07:11:44.056Z,8.50
2023-07-02T07:14:11.983Z,8.30
2023-07-02T07:16:40.159Z,8.00
2023-07-02T07:19:08.745Z,9.65
2023-07-02T07:21:36.579Z,7.68
2023-07-02T07:24:04.414Z,6.93
2023-07-02T07:26:34.769Z,7.15
2023-07-02T07:29:02.598Z,7.50
2023-07-02T07:31:30.399Z,7.13
2023-07-02T07:33:58.027Z,7.90
2023-07-02T07:36:25.527Z,7.72
2023-07-02T07:38:54.196Z,8.15
2023-07-02T07:41:21.709Z,9.15
2023-07-02T07:43:49.293Z,9.32
2023-07-02T07:46:16.910Z,7.95
2023-07-02T07:48:46.239Z,8.27
2023-07-02T07:51:13.826Z,7.57
2023-07-02T07:53:41.458Z,7.57
2023-07-02T07:56:09.089Z,7.25
2023-07-02T07:58:36.698Z,7.93
2023-07-02T08:01:04.486Z,6.90
2023-07-02T08:03:32.372Z,6.85
2023-07-02T08:06:00.210Z,7.10
2023-07-02T08:08:27.789Z,6.85
2023-07-02T08:10:56.601Z,9.32
2023-07-02T08:13:28.558Z,6.60
2023-07-02T08:15:56.272Z,6.40
2023-07-02T08:18:26.637Z,5.80
2023-07-02T08:21:07.473Z,6.47
2023-07-02T08:23:40.427Z,5.68
2023-07-02T08:26:09.306Z,5.05
2023-07-02T08:28:36.836Z,5.28
2023-07-02T08:31:04.735Z,4.45
2023-07-02T08:33:33.220Z,5.22
2023-07-02T08:36:02.252Z,4.50
2023-07-02T08:38:30.197Z,4.80
2023-07-02T08:40:58.320Z,5.40
2023-07-02T08:43:26.947Z,5.05
2023-07-02T08:45:55.116Z,5.35
2023-07-02T08:48:25.107Z,4.30
2023-07-02T08:50:56.802Z,4.90
2023-07-02T08:53:31.012Z,5.00
2023-07-02T08:55:58.907Z,5.78
2023-07-02T08:58:26.648Z,4.32
2023-07-02T09:01:07.979Z,5.40
2023-07-02T09:03:35.892Z,4.78
2023-07-02T09:06:04.440Z,4.15
2023-07-02T09:08:34.938Z,4.50
2023-07-02T09:11:11.127Z,6.85
2023-07-02T09:13:50.097Z,4.57
2023-07-02T09:16:29.967Z,4.30
2023-07-02T09:19:04.655Z,4.45
2023-07-02T09:26:23.654Z,4.30
2023-07-02T09:29:03.079Z,4.00
2023-07-02T09:31:30.854Z,4.55
2023-07-02T09:34:13.585Z,4.05
2023-07-02T09:36:44.366Z,4.40
2023-07-02T09:39:19.224Z,3.90
2023-07-02T09:41:47.320Z,4.13
2023-07-02T09:44:15.012Z,4.28
2023-07-02T09:46:45.415Z,3.45
2023-07-02T09:49:23.833Z,3.72
2023-07-02T09:51:52.529Z,4.00
2023-07-02T09:54:22.069Z,3.10
2023-07-02T09:56:51.650Z,3.35
2023-07-02T09:59:23.255Z,3.45
2023-07-02T10:01:54.540Z,3.70
2023-07-02T10:04:29.441Z,3.53
2023-07-02T10:07:27.854Z,3.85
2023-07-02T10:09:57.046Z,3.78
2023-07-02T10:12:28.703Z,3.55
2023-07-02T10:14:58.436Z,3.50
2023-07-02T10:17:32.594Z,3.55
2023-07-02T10:20:10.034Z,3.65
2023-07-02T10:22:46.237Z,4.07
2023-07-02T10:28:44.900Z,3.78
2023-07-02T10:31:22.651Z,4.10
2023-07-02T10:33:52.294Z,3.50
2023-07-02T10:36:25.639Z,3.40
2023-07-02T10:39:01.978Z,4.00
2023-07-02T10:41:37.502Z,4.63
2023-07-02T10:44:11.230Z,3.88
2023-07-02T10:46:49.735Z,3.90
2023-07-02T10:49:18.721Z,3.67
2023-07-02T10:51:46.655Z,3.92
2023-07-02T10:54:15.432Z,4.05
2023-07-02T10:56:48.608Z,3.55
2023-07-02T11:00:25.485Z,3.95
2023-07-02T11:03:58.463Z,3.40
2023-07-02T11:06:26.814Z,3.33
2023-07-02T11:09:22.744Z,3.30
2023-07-02T11:11:58.794Z,3.97
2023-07-02T11:14:31.283Z,3.10
2023-07-02T11:18:04.820Z,3.13
2023-07-02T11:20:35.387Z,3.22
2023-07-02T11:23:21.146Z,3.17
2023-07-02T11:26:28.381Z,3.10
2023-07-02T11:28:56.698Z,3.28
2023-07-02T11:31:28.909Z,3.25
2023-07-02T11:34:24.293Z,3.47
2023-07-02T11:36:55.434Z,3.53
2023-07-02T11:39:23.617Z,4.30
2023-07-02T11:41:51.755Z,3.40
2023-07-02T11:44:20.998Z,3.13
2023-07-02T11:46:54.175Z,3.38
2023-07-02T11:49:23.477Z,3.50
2023-07-02T11:51:59.364Z,3.70
2023-07-02T11:54:39.662Z,3.35
2023-07-02T11:57:09.113Z,3.72
2023-07-02T11:59:44.198Z,3.50
2023-07-02T12:02:18.829Z,3.53
2023-07-02T12:04:46.963Z,3.33
2023-07-02T12:07:15.584Z,3.63
2023-07-02T12:09:52.898Z,3.67
2023-07-02T12:12:25.761Z,3.20
2023-07-02T12:14:53.614Z,3.20
2023-07-02T12:17:22.988Z,3.00
2023-07-02T12:19:50.811Z,3.13
2023-07-02T12:22:19.645Z,3.03
2023-07-02T12:24:47.834Z,3.63
2023-07-02T12:27:15.565Z,3.83
2023-07-02T12:29:51.166Z,5.72
2023-07-02T12:34:46.217Z,4.30
2023-07-02T12:37:18.685Z,4.47
2023-07-02T12:39:46.599Z,3.90
2023-07-02T12:42:27.201Z,3.92
2023-07-02T12:45:00.780Z,3.70
2023-07-02T12:47:28.625Z,7.80
2023-07-02T12:49:56.611Z,4.22
2023-07-02T12:52:25.174Z,3.08
2023-07-02T12:54:56.854Z,2.55
2023-07-02T12:57:24.922Z,2.83
2023-07-02T12:59:57.188Z,2.40
2023-07-02T13:02:26.080Z,2.60
2023-07-02T13:04:54.885Z,2.78
2023-07-02T13:07:24.606Z,2.97
2023-07-02T13:09:55.703Z,2.40
2023-07-02T13:12:24.050Z,2.38
2023-07-02T13:14:54.253Z,2.70
2023-07-02T13:17:22.232Z,2.80
2023-07-02T13:19:51.793Z,2.83
2023-07-02T13:22:19.292Z,2.67
2023-07-02T13:24:47.020Z,2.45
2023-07-02T13:27:16.269Z,2.90
2023-07-02T13:29:43.940Z,2.83
2023-07-02T13:32:12.574Z,3.08
2023-07-02T13:34:41.694Z,2.63
2023-07-02T13:37:10.474Z,2.83
2023-07-02T13:39:38.414Z,2.80
2023-07-02T13:42:06.878Z,2.70
2023-07-02T13:44:34.866Z,2.83
2023-07-02T13:47:02.626Z,2.92
2023-07-02T13:49:30.455Z,2.90
2023-07-02T13:51:58.192Z,2.53
2023-07-02T13:54:29.671Z,2.55
2023-07-02T13:57:04.663Z,2.47
2023-07-02T13:59:33.741Z,3.60
2023-07-02T14:02:10.359Z,3.83
2023-07-02T14:04:38.798Z,2.80
2023-07-02T14:07:07.139Z,3.28
2023-07-02T14:09:35.621Z,3.58
2023-07-02T14:12:06.235Z,4.80
2023-07-02T14:14:40.834Z,3.55
2023-07-02T14:17:08.469Z,3.38
2023-07-02T14:19:36.355Z,3.53
2023-07-02T14:22:04.249Z,4.75
2023-07-02T14:24:35.408Z,3.63
2023-07-02T14:27:03.562Z,3.05
2023-07-02T14:29:31.501Z,3.20
2023-07-02T14:32:02.832Z,3.25
2023-07-02T14:34:30.892Z,3.45
2023-07-02T14:36:59.661Z,2.78
2023-07-02T14:39:27.854Z,3.70
2023-07-02T14:41:56.180Z,3.40
2023-07-02T14:44:25.023Z,4.43
2023-07-02T14:46:54.395Z,4.03
2023-07-02T14:49:22.746Z,5.20
2023-07-02T14:51:50.312Z,6.60
2023-07-02T14:54:20.980Z,5.85
2023-07-02T14:56:50.972Z,4.88
2023-07-02T14:59:21.613Z,4.53
2023-07-02T15:01:51.016Z,4.45
2023-07-02T15:04:20.077Z,4.72
2023-07-02T15:06:48.047Z,5.68
2023-07-02T15:09:16.093Z,4.57
2023-07-02T15:11:43.730Z,3.60
2023-07-02T15:14:12.280Z,3.97
2023-07-02T15:16:40.843Z,3.85
2023-07-02T15:19:08.947Z,3.53
2023-07-02T15:21:36.931Z,3.33
2023-07-02T15:24:05.267Z,3.35
2023-07-02T15:26:34.964Z,3.70
2023-07-02T15:29:03.243Z,3.17
2023-07-02T15:31:34.466Z,2.72
2023-07-02T15:34:02.174Z,2.90
2023-07-02T15:36:36.884Z,3.20
2023-07-02T15:39:05.768Z,2.92
2023-07-02T15:41:34.080Z,3.63
2023-07-02T15:44:04.587Z,3.10
2023-07-02T15:46:35.921Z,3.13
2023-07-02T15:49:04.989Z,2.80
2023-07-02T15:51:38.493Z,3.58
2023-07-02T15:54:08.120Z,3.47
2023-07-02T15:56:37.104Z,3.28
2023-07-02T15:59:07.542Z,3.17
2023-07-02T16:01:48.105Z,5.85
2023-07-02T16:04:17.517Z,4.70
2023-07-02T16:06:46.628Z,3.72
2023-07-02T16:09:14.332Z,3.55
2023-07-02T16:11:43.380Z,3.90
2023-07-02T16:14:12.857Z,3.53
2023-07-02T16:16:41.700Z,3.45
2023-07-02T16:19:10.782Z,3.92
2023-07-02T16:21:41.136Z,3.33
2023-07-02T16:24:30.055Z,3.95
2023-07-02T16:27:16.046Z,3.63
2023-07-02T16:29:46.877Z,3.67
2023-07-02T16:32:15.037Z,3.67
2023-07-02T16:34:44.975Z,3.75
2023-07-02T16:37:12.749Z,3.88
2023-07-02T16:39:40.849Z,3.72
2023-07-02T16:42:09.030Z,3.92
2023-07-02T16:44:36.844Z,5.05
2023-07-02T16:47:04.590Z,5.47
2023-07-02T16:49:32.494Z,5.05
2023-07-02T16:52:00.278Z,4.80
2023-07-02T16:54:27.750Z,5.15
2023-07-02T16:56:57.910Z,4.65
2023-07-02T16:59:26.653Z,4.85
2023-07-02T17:01:56.601Z,4.90
2023-07-02T17:04:25.789Z,4.05
2023-07-02T17:06:55.774Z,3.97
2023-07-02T17:09:38.355Z,4.20
2023-07-02T17:12:13.747Z,4.05
2023-07-02T17:14:44.982Z,3.75
2023-07-02T17:17:21.272Z,4.32
2023-07-02T17:19:52.617Z,3.95
2023-07-02T17:22:25.038Z,4.25
2023-07-02T17:24:53.468Z,4.38
2023-07-02T17:27:30.198Z,4.20
2023-07-02T17:30:08.041Z,4.00
2023-07-02T17:32:36.261Z,4.07
2023-07-02T17:35:04.177Z,4.60
2023-07-02T17:37:34.823Z,4.50
2023-07-02T17:40:04.385Z,4.82
2023-07-02T17:42:32.136Z,5.22
2023-07-02T17:45:06.661Z,5.43
2023-07-02T17:47:37.026Z,5.90
2023-07-02T17:50:09.202Z,4.93
2023-07-02T17:52:38.000Z,4.57
2023-07-02T17:55:07.468Z,4.57
2023-07-02T17:57:39.532Z,4.47
2023-07-02T18:00:18.953Z,4.45
2023-07-02T18:02:47.069Z,4.20
2023-07-02T18:05:16.607Z,4.57
2023-07-02T18:07:45.032Z,5.18
2023-07-02T18:10:12.873Z,3.75
2023-07-02T18:12:42.214Z,4.38
2023-07-02T18:15:10.255Z,4.30
2023-07-02T18:17:45.299Z,4.10
2023-07-02T18:20:16.325Z,4.40
2023-07-02T18:22:46.401Z,4.70
2023-07-02T18:25:20.498Z,4.65
2023-07-02T18:28:08.744Z,4.70
2023-07-02T18:30:42.630Z,4.80
2023-07-02T18:33:14.280Z,5.38
2023-07-02T18:35:43.829Z,5.68
2023-07-02T18:38:11.574Z,5.07
2023-07-02T18:40:39.809Z,5.00
2023-07-02T18:43:12.565Z,5.00
2023-07-02T18:45:40.567Z,5.22
2023-07-02T18:48:10.173Z,6.25
2023-07-02T18:50:40.458Z,5.30
2023-07-02T18:53:08.346Z,5.82
2023-07-02T18:55:36.769Z,6.20
2023-07-02T18:58:08.170Z,5.90
2023-07-02T19:00:37.398Z,5.10
2023-07-02T19:03:09.050Z,5.18
2023-07-02T19:05:38.576Z,5.38
2023-07-02T19:08:06.192Z,5.32
2023-07-02T19:10:34.737Z,5.68
2023-07-02T19:13:05.408Z,5.18
2023-07-02T19:15:34.487Z,6.63
2023-07-02T19:18:03.584Z,6.00
2023-07-02T19:20:34.356Z,5.50
2023-07-02T19:23:06.103Z,5.22
2023-07-02T19:25:34.490Z,5.10
2023-07-02T19:28:03.458Z,4.40
2023-07-02T19:30:33.081Z,3.97
2023-07-02T19:33:02.213Z,3.90
2023-07-02T19:35:31.384Z,4.38
2023-07-02T19:37:59.762Z,4.63
2023-07-02T19:40:35.492Z,4.45
2023-07-02T19:43:04.536Z,4.60
2023-07-02T19:45:34.131Z,4.47
2023-07-02T19:48:01.855Z,4.55
2023-07-02T19:50:33.457Z,4.53
2023-07-02T19:53:02.163Z,4.47
2023-07-02T19:55:30.036Z,3.97
2023-07-02T19:57:57.845Z,4.15
2023-07-02T20:00:26.520Z,4.57
2023-07-02T20:02:54.541Z,4.88
2023-07-02T20:05:32.817Z,4.13
2023-07-02T20:08:03.319Z,5.28
2023-07-02T20:10:31.882Z,4.43
2023-07-02T20:13:00.922Z,5.25
2023-07-02T20:15:28.440Z,4.00
2023-07-02T20:17:58.480Z,3.97
2023-07-02T20:20:26.616Z,4.28
2023-07-02T20:22:57.364Z,4.60
2023-07-02T20:28:02.173Z,4.00
2023-07-02T20:30:30.301Z,3.90
2023-07-02T20:32:58.437Z,4.07
2023-07-02T20:35:26.176Z,3.72
2023-07-02T20:37:53.772Z,4.45
2023-07-02T20:40:21.572Z,3.72
2023-07-02T20:42:50.582Z,4.28
2023-07-02T20:45:18.739Z,4.07
2023-07-02T20:47:46.386Z,3.80
2023-07-02T20:50:15.155Z,3.80
2023-07-02T20:52:46.044Z,5.07
2023-07-02T20:55:14.201Z,3.72
2023-07-02T20:57:47.797Z,3.33
2023-07-02T21:00:16.002Z,3.50
2023-07-02T21:02:45.420Z,4.55
2023-07-02T21:05:14.728Z,3.65
2023-07-02T21:07:43.027Z,3.33
2023-07-02T21:10:10.790Z,3.53
2023-07-02T21:12:44.491Z,3.55
2023-07-02T21:15:15.234Z,3.25
2023-07-02T21:17:44.469Z,4.25
2023-07-02T21:20:13.606Z,4.30
2023-07-02T21:22:49.982Z,3.90
2023-07-02T21:25:17.977Z,3.75
2023-07-02T21:27:47.833Z,3.83
2023-07-02T21:30:15.702Z,4.18
2023-07-02T21:32:43.892Z,3.58
2023-07-02T21:35:12.468Z,3.70
2023-07-02T21:37:40.286Z,3.22
2023-07-02T21:40:08.756Z,3.75
2023-07-02T21:42:36.486Z,4.15
2023-07-02T21:45:04.382Z,4.18
2023-07-02T21:47:32.788Z,3.90
2023-07-02T21:50:00.292Z,3.53
2023-07-02T21:52:30.126Z,3.35
2023-07-02T21:54:57.852Z,3.80
2023-07-02T21:57:25.445Z,3.30
2023-07-02T21:59:53.286Z,3.20
2023-07-02T22:02:22.550Z,4.25
2023-07-02T22:04:50.317Z,3.88
2023-07-02T22:07:17.852Z,3.72
2023-07-02T22:09:45.822Z,3.60
2023-07-02T22:12:13.733Z,3.58
2023-07-02T22:14:41.360Z,3.47
2023-07-02T22:17:09.411Z,3.35
2023-07-02T22:19:37.582Z,3.85
2023-07-02T22:22:06.011Z,4.18
2023-07-02T22:24:33.666Z,3.55
2023-07-02T22:27:01.160Z,3.72
2023-07-02T22:29:28.742Z,4.20
2023-07-02T22:31:57.418Z,3.38
2023-07-02T22:34:25.105Z,3.55
2023-07-02T22:36:52.862Z,4.13
2023-07-02T22:39:22.733Z,3.92
2023-07-02T22:41:50.588Z,4.07
2023-07-02T22:44:18.335Z,4.32
2023-07-02T22:46:46.091Z,3.78
2023-07-02T22:49:14.006Z,3.80
2023-07-02T22:51:42.288Z,3.72
2023-07-02T22:54:09.880Z,3.90
2023-07-02T22:56:39.161Z,4.13
2023-07-02T22:59:06.726Z,4.10
2023-07-02T23:01:35.254Z,4.03
2023-07-02T23:04:04.084Z,3.78
2023-07-02T23:06:31.963Z,3.60
2023-07-02T23:08:59.827Z,4.30
2023-07-02T23:11:27.471Z,3.88
2023-07-02T23:13:55.121Z,4.15
2023-07-02T23:16:23.082Z,4.15
2023-07-02T23:18:50.780Z,4.22
2023-07-02T23:21:18.742Z,3.92
2023-07-02T23:23:46.431Z,4.03
2023-07-02T23:26:19.117Z,3.80
2023-07-02T23:28:54.402Z,3.97
2023-07-02T23:31:22.704Z,4.50
2023-07-02T23:33:50.462Z,4.47
2023-07-02T23:36:22.702Z,4.13
2023-07-02T23:38:53.768Z,3.80
2023-07-02T23:41:23.629Z,3.85
2023-07-02T23:43:51.508Z,3.92
2023-07-02T23:46:19.382Z,4.55
2023-07-02T23:48:47.067Z,4.35
2023-07-02T23:51:19.034Z,4.28
2023-07-02T23:53:47.458Z,4.50
2023-07-02T23:56:15.245Z,4.18
2023-07-02T23:58:43.216Z,4.45
